sensor_id;sensor_type;location;lat;lon;timestamp;temperature;humidity
9987;DHT22;5033;46.310;11.214;2024-01-07T00:01:46;4.80;99.90
9987;DHT22;5033;46.310;11.214;2024-01-07T00:04:14;4.80;99.90
9987;DHT22;5033;46.310;11.214;2024-01-07T00:06:43;4.70;99.90
9987;DHT22;5033;46.310;11.214;2024-01-07T00:09:11;4.70;99.90
9987;DHT22;5033;46.310;11.214;2024-01-07T00:11:38;4.70;99.90
9987;DHT22;5033;46.310;11.214;2024-01-07T00:14:06;4.70;99.90
9987;DHT22;5033;46.310;11.214;2024-01-07T00:16:33;4.70;99.90
9987;DHT22;5033;46.310;11.214;2024-01-07T00:19:00;4.70;99.90
9987;DHT22;5033;46.310;11.214;2024-01-07T00:21:27;4.70;99.90
9987;DHT22;5033;46.310;11.214;2024-01-07T00:23:56;4.70;99.90
9987;DHT22;5033;46.310;11.214;2024-01-07T00:26:23;4.70;99.90
9987;DHT22;5033;46.310;11.214;2024-01-07T00:28:50;4.80;99.90
9987;DHT22;5033;46.310;11.214;2024-01-07T00:31:17;4.80;99.90
9987;DHT22;5033;46.310;11.214;2024-01-07T00:33:44;4.80;99.90
9987;DHT22;5033;46.310;11.214;2024-01-07T00:36:11;4.80;99.90
9987;DHT22;5033;46.310;11.214;2024-01-07T00:38:38;4.80;99.90
9987;DHT22;5033;46.310;11.214;2024-01-07T00:41:07;4.80;99.90
9987;DHT22;5033;46.310;11.214;2024-01-07T00:43:34;4.80;99.90
9987;DHT22;5033;46.310;11.214;2024-01-07T00:46:01;4.80;99.90
9987;DHT22;5033;46.310;11.214;2024-01-07T00:48:28;4.90;99.90
9987;DHT22;5033;46.310;11.214;2024-01-07T00:50:55;4.90;99.90
9987;DHT22;5033;46.310;11.214;2024-01-07T00:53:22;4.90;99.90
9987;DHT22;5033;46.310;11.214;2024-01-07T00:55:49;4.90;99.90
9987;DHT22;5033;46.310;11.214;2024-01-07T00:58:17;5.00;99.90
9987;DHT22;5033;46.310;11.214;2024-01-07T01:00:44;5.00;99.90
9987;DHT22;5033;46.310;11.214;2024-01-07T01:03:12;5.00;99.90
9987;DHT22;5033;46.310;11.214;2024-01-07T01:05:39;5.00;99.90
9987;DHT22;5033;46.310;11.214;2024-01-07T01:08:06;5.00;99.90
9987;DHT22;5033;46.310;11.214;2024-01-07T01:10:33;5.10;99.90
9987;DHT22;5033;46.310;11.214;2024-01-07T01:13:00;5.10;99.90
9987;DHT22;5033;46.310;11.214;2024-01-07T01:15:29;5.10;99.90
9987;DHT22;5033;46.310;11.214;2024-01-07T01:17:56;5.10;99.90
9987;DHT22;5033;46.310;11.214;2024-01-07T01:20:23;5.10;99.90
9987;DHT22;5033;46.310;11.214;2024-01-07T01:22:50;5.10;99.90
9987;DHT22;5033;46.310;11.214;2024-01-07T01:25:17;5.10;99.90
9987;DHT22;5033;46.310;11.214;2024-01-07T01:27:45;5.10;99.90
9987;DHT22;5033;46.310;11.214;2024-01-07T01:30:12;5.10;99.90
9987;DHT22;5033;46.310;11.214;2024-01-07T01:32:41;5.10;99.90
9987;DHT22;5033;46.310;11.214;2024-01-07T01:35:09;5.10;99.90
9987;DHT22;5033;46.310;11.214;2024-01-07T01:37:36;5.10;99.90
9987;DHT22;5033;46.310;11.214;2024-01-07T01:40:03;5.10;99.90
9987;DHT22;5033;46.310;11.214;2024-01-07T01:42:30;5.10;99.90
9987;DHT22;5033;46.310;11.214;2024-01-07T01:44:57;5.10;99.90
9987;DHT22;5033;46.310;11.214;2024-01-07T01:47:27;5.10;99.90
9987;DHT22;5033;46.310;11.214;2024-01-07T01:49:56;5.10;99.90
9987;DHT22;5033;46.310;11.214;2024-01-07T01:52:23;5.10;99.90
9987;DHT22;5033;46.310;11.214;2024-01-07T01:54:50;5.10;99.90
9987;DHT22;5033;46.310;11.214;2024-01-07T01:57:22;5.10;99.90
9987;DHT22;5033;46.310;11.214;2024-01-07T01:59:51;5.00;99.90
9987;DHT22;5033;46.310;11.214;2024-01-07T02:02:19;5.00;99.90
9987;DHT22;5033;46.310;11.214;2024-01-07T02:04:46;5.00;99.90
9987;DHT22;5033;46.310;11.214;2024-01-07T02:07:14;5.00;99.90
9987;DHT22;5033;46.310;11.214;2024-01-07T02:09:41;4.90;99.90
9987;DHT22;5033;46.310;11.214;2024-01-07T02:12:08;5.00;99.90
9987;DHT22;5033;46.310;11.214;2024-01-07T02:14:37;5.00;99.90
9987;DHT22;5033;46.310;11.214;2024-01-07T02:17:05;4.90;99.90
9987;DHT22;5033;46.310;11.214;2024-01-07T02:19:32;5.00;99.90
9987;DHT22;5033;46.310;11.214;2024-01-07T02:21:59;5.00;99.90
9987;DHT22;5033;46.310;11.214;2024-01-07T02:24:27;5.00;99.90
9987;DHT22;5033;46.310;11.214;2024-01-07T02:26:56;5.00;99.90
9987;DHT22;5033;46.310;11.214;2024-01-07T02:29:23;5.00;99.90
9987;DHT22;5033;46.310;11.214;2024-01-07T02:31:50;4.90;99.90
9987;DHT22;5033;46.310;11.214;2024-01-07T02:34:17;4.90;99.90
9987;DHT22;5033;46.310;11.214;2024-01-07T02:36:44;4.90;99.90
9987;DHT22;5033;46.310;11.214;2024-01-07T02:39:11;4.90;99.90
9987;DHT22;5033;46.310;11.214;2024-01-07T02:41:39;5.00;99.90
9987;DHT22;5033;46.310;11.214;2024-01-07T02:44:06;5.00;99.90
9987;DHT22;5033;46.310;11.214;2024-01-07T02:46:33;5.00;99.90
9987;DHT22;5033;46.310;11.214;2024-01-07T02:49:00;5.10;99.90
9987;DHT22;5033;46.310;11.214;2024-01-07T02:51:27;5.10;99.90
9987;DHT22;5033;46.310;11.214;2024-01-07T02:53:54;5.10;99.90
9987;DHT22;5033;46.310;11.214;2024-01-07T02:56:21;5.10;99.90
9987;DHT22;5033;46.310;11.214;2024-01-07T02:58:50;5.10;99.90
9987;DHT22;5033;46.310;11.214;2024-01-07T03:01:17;5.10;99.90
9987;DHT22;5033;46.310;11.214;2024-01-07T03:03:44;5.20;99.90
9987;DHT22;5033;46.310;11.214;2024-01-07T03:06:11;5.20;99.90
9987;DHT22;5033;46.310;11.214;2024-01-07T03:08:38;5.10;99.90
9987;DHT22;5033;46.310;11.214;2024-01-07T03:11:05;5.10;99.90
9987;DHT22;5033;46.310;11.214;2024-01-07T03:13:33;5.10;99.90
9987;DHT22;5033;46.310;11.214;2024-01-07T03:16:01;5.10;99.90
9987;DHT22;5033;46.310;11.214;2024-01-07T03:18:29;5.10;99.90
9987;DHT22;5033;46.310;11.214;2024-01-07T03:20:56;5.10;99.90
9987;DHT22;5033;46.310;11.214;2024-01-07T03:23:23;5.00;99.90
9987;DHT22;5033;46.310;11.214;2024-01-07T03:25:50;5.00;99.90
9987;DHT22;5033;46.310;11.214;2024-01-07T03:28:17;5.00;99.90
9987;DHT22;5033;46.310;11.214;2024-01-07T03:30:44;4.90;99.90
9987;DHT22;5033;46.310;11.214;2024-01-07T03:33:12;5.00;99.90
9987;DHT22;5033;46.310;11.214;2024-01-07T03:35:39;4.90;99.90
9987;DHT22;5033;46.310;11.214;2024-01-07T03:38:06;4.90;99.90
9987;DHT22;5033;46.310;11.214;2024-01-07T03:40:33;5.00;99.90
9987;DHT22;5033;46.310;11.214;2024-01-07T03:43:00;5.00;99.90
9987;DHT22;5033;46.310;11.214;2024-01-07T03:45:27;5.00;99.90
9987;DHT22;5033;46.310;11.214;2024-01-07T03:47:55;5.10;99.90
9987;DHT22;5033;46.310;11.214;2024-01-07T03:50:23;5.10;99.90
9987;DHT22;5033;46.310;11.214;2024-01-07T03:52:50;5.10;99.90
9987;DHT22;5033;46.310;11.214;2024-01-07T03:55:17;5.00;99.90
9987;DHT22;5033;46.310;11.214;2024-01-07T03:57:44;5.00;99.90
9987;DHT22;5033;46.310;11.214;2024-01-07T04:00:12;5.10;99.90
9987;DHT22;5033;46.310;11.214;2024-01-07T04:02:39;5.10;99.90
9987;DHT22;5033;46.310;11.214;2024-01-07T04:05:07;5.20;99.90
9987;DHT22;5033;46.310;11.214;2024-01-07T04:07:36;5.20;99.90
9987;DHT22;5033;46.310;11.214;2024-01-07T04:10:03;5.20;99.90
9987;DHT22;5033;46.310;11.214;2024-01-07T04:12:31;5.20;99.90
9987;DHT22;5033;46.310;11.214;2024-01-07T04:14:58;5.20;99.90
9987;DHT22;5033;46.310;11.214;2024-01-07T04:17:26;5.10;99.90
9987;DHT22;5033;46.310;11.214;2024-01-07T04:19:53;5.10;99.90
9987;DHT22;5033;46.310;11.214;2024-01-07T04:22:20;5.10;99.90
9987;DHT22;5033;46.310;11.214;2024-01-07T04:24:48;5.10;99.90
9987;DHT22;5033;46.310;11.214;2024-01-07T04:27:15;5.20;99.90
9987;DHT22;5033;46.310;11.214;2024-01-07T04:29:42;5.20;99.90
9987;DHT22;5033;46.310;11.214;2024-01-07T04:32:09;5.30;99.90
9987;DHT22;5033;46.310;11.214;2024-01-07T04:34:36;5.30;99.90
9987;DHT22;5033;46.310;11.214;2024-01-07T04:37:03;5.20;99.90
9987;DHT22;5033;46.310;11.214;2024-01-07T04:39:30;5.20;99.90
9987;DHT22;5033;46.310;11.214;2024-01-07T04:41:59;5.20;99.90
9987;DHT22;5033;46.310;11.214;2024-01-07T04:44:26;5.20;99.90
9987;DHT22;5033;46.310;11.214;2024-01-07T04:46:53;5.10;99.90
9987;DHT22;5033;46.310;11.214;2024-01-07T04:49:20;5.10;99.90
9987;DHT22;5033;46.310;11.214;2024-01-07T04:51:47;5.20;99.90
9987;DHT22;5033;46.310;11.214;2024-01-07T04:54:14;5.20;99.90
9987;DHT22;5033;46.310;11.214;2024-01-07T04:56:41;5.30;99.90
9987;DHT22;5033;46.310;11.214;2024-01-07T04:59:10;5.30;99.90
9987;DHT22;5033;46.310;11.214;2024-01-07T05:01:37;5.30;99.90
9987;DHT22;5033;46.310;11.214;2024-01-07T05:04:05;5.20;99.90
9987;DHT22;5033;46.310;11.214;2024-01-07T05:06:32;5.20;99.90
9987;DHT22;5033;46.310;11.214;2024-01-07T05:08:59;5.20;99.90
9987;DHT22;5033;46.310;11.214;2024-01-07T05:11:26;5.20;99.90
9987;DHT22;5033;46.310;11.214;2024-01-07T05:13:53;5.20;99.90
9987;DHT22;5033;46.310;11.214;2024-01-07T05:16:21;5.20;99.90
9987;DHT22;5033;46.310;11.214;2024-01-07T05:18:48;5.10;99.90
9987;DHT22;5033;46.310;11.214;2024-01-07T05:21:15;5.10;99.90
9987;DHT22;5033;46.310;11.214;2024-01-07T05:23:46;5.00;99.90
9987;DHT22;5033;46.310;11.214;2024-01-07T05:26:13;5.10;99.90
9987;DHT22;5033;46.310;11.214;2024-01-07T05:28:40;5.10;99.90
9987;DHT22;5033;46.310;11.214;2024-01-07T05:31:14;5.20;99.90
9987;DHT22;5033;46.310;11.214;2024-01-07T05:33:43;5.20;99.90
9987;DHT22;5033;46.310;11.214;2024-01-07T05:36:10;5.30;99.90
9987;DHT22;5033;46.310;11.214;2024-01-07T05:38:37;5.30;99.90
9987;DHT22;5033;46.310;11.214;2024-01-07T05:41:04;5.30;99.90
9987;DHT22;5033;46.310;11.214;2024-01-07T05:43:31;5.30;99.90
9987;DHT22;5033;46.310;11.214;2024-01-07T05:45:58;5.30;99.90
9987;DHT22;5033;46.310;11.214;2024-01-07T05:48:25;5.30;99.90
9987;DHT22;5033;46.310;11.214;2024-01-07T05:50:54;5.30;99.90
9987;DHT22;5033;46.310;11.214;2024-01-07T05:53:21;5.40;99.90
9987;DHT22;5033;46.310;11.214;2024-01-07T05:55:48;5.40;99.90
9987;DHT22;5033;46.310;11.214;2024-01-07T05:58:15;5.40;99.90
9987;DHT22;5033;46.310;11.214;2024-01-07T06:00:42;5.40;99.90
9987;DHT22;5033;46.310;11.214;2024-01-07T06:03:10;5.40;99.90
9987;DHT22;5033;46.310;11.214;2024-01-07T06:05:38;5.40;99.90
9987;DHT22;5033;46.310;11.214;2024-01-07T06:08:07;5.40;99.90
9987;DHT22;5033;46.310;11.214;2024-01-07T06:10:34;5.50;99.90
9987;DHT22;5033;46.310;11.214;2024-01-07T06:13:01;5.50;99.90
9987;DHT22;5033;46.310;11.214;2024-01-07T06:15:28;5.50;99.90
9987;DHT22;5033;46.310;11.214;2024-01-07T06:17:55;5.50;99.90
9987;DHT22;5033;46.310;11.214;2024-01-07T06:20:23;5.50;99.90
9987;DHT22;5033;46.310;11.214;2024-01-07T06:22:50;5.50;99.90
9987;DHT22;5033;46.310;11.214;2024-01-07T06:25:18;5.60;99.90
9987;DHT22;5033;46.310;11.214;2024-01-07T06:27:46;5.60;99.90
9987;DHT22;5033;46.310;11.214;2024-01-07T06:30:13;5.60;99.90
9987;DHT22;5033;46.310;11.214;2024-01-07T06:32:43;5.60;99.90
9987;DHT22;5033;46.310;11.214;2024-01-07T06:35:11;5.60;99.90
9987;DHT22;5033;46.310;11.214;2024-01-07T06:37:38;5.60;99.90
9987;DHT22;5033;46.310;11.214;2024-01-07T06:40:06;5.60;99.90
9987;DHT22;5033;46.310;11.214;2024-01-07T06:42:35;5.60;99.90
9987;DHT22;5033;46.310;11.214;2024-01-07T06:45:02;5.60;99.90
9987;DHT22;5033;46.310;11.214;2024-01-07T06:47:29;5.60;99.90
9987;DHT22;5033;46.310;11.214;2024-01-07T06:49:56;5.60;99.90
9987;DHT22;5033;46.310;11.214;2024-01-07T06:52:23;5.60;99.90
9987;DHT22;5033;46.310;11.214;2024-01-07T06:54:50;5.60;99.90
9987;DHT22;5033;46.310;11.214;2024-01-07T06:57:17;5.60;99.90
9987;DHT22;5033;46.310;11.214;2024-01-07T06:59:46;5.60;99.90
9987;DHT22;5033;46.310;11.214;2024-01-07T07:02:13;5.60;99.90
9987;DHT22;5033;46.310;11.214;2024-01-07T07:04:40;5.60;99.90
9987;DHT22;5033;46.310;11.214;2024-01-07T07:07:07;5.70;99.90
9987;DHT22;5033;46.310;11.214;2024-01-07T07:09:34;5.70;99.90
9987;DHT22;5033;46.310;11.214;2024-01-07T07:12:01;5.80;99.90
9987;DHT22;5033;46.310;11.214;2024-01-07T07:14:28;5.80;99.90
9987;DHT22;5033;46.310;11.214;2024-01-07T07:16:57;5.80;99.90
9987;DHT22;5033;46.310;11.214;2024-01-07T07:19:24;5.80;99.90
9987;DHT22;5033;46.310;11.214;2024-01-07T07:21:51;5.80;99.90
9987;DHT22;5033;46.310;11.214;2024-01-07T07:24:19;5.80;99.90
9987;DHT22;5033;46.310;11.214;2024-01-07T07:26:46;5.80;99.90
9987;DHT22;5033;46.310;11.214;2024-01-07T07:29:13;5.90;99.90
9987;DHT22;5033;46.310;11.214;2024-01-07T07:31:40;5.90;99.90
9987;DHT22;5033;46.310;11.214;2024-01-07T07:34:09;5.90;99.90
9987;DHT22;5033;46.310;11.214;2024-01-07T07:36:37;6.00;99.90
9987;DHT22;5033;46.310;11.214;2024-01-07T07:39:05;5.90;99.90
9987;DHT22;5033;46.310;11.214;2024-01-07T07:41:32;5.90;99.90
9987;DHT22;5033;46.310;11.214;2024-01-07T07:43:59;5.90;99.90
9987;DHT22;5033;46.310;11.214;2024-01-07T07:46:26;5.90;99.90
9987;DHT22;5033;46.310;11.214;2024-01-07T07:48:53;5.90;99.90
9987;DHT22;5033;46.310;11.214;2024-01-07T07:51:22;5.90;99.90
9987;DHT22;5033;46.310;11.214;2024-01-07T07:53:49;6.00;99.90
9987;DHT22;5033;46.310;11.214;2024-01-07T07:56:16;5.90;99.90
9987;DHT22;5033;46.310;11.214;2024-01-07T07:58:43;5.90;99.90
9987;DHT22;5033;46.310;11.214;2024-01-07T08:01:10;5.90;99.90
9987;DHT22;5033;46.310;11.214;2024-01-07T08:03:37;6.00;99.90
9987;DHT22;5033;46.310;11.214;2024-01-07T08:06:04;6.00;99.90
9987;DHT22;5033;46.310;11.214;2024-01-07T08:08:33;6.00;99.90
9987;DHT22;5033;46.310;11.214;2024-01-07T08:11:00;6.10;99.90
9987;DHT22;5033;46.310;11.214;2024-01-07T08:13:27;6.10;99.90
9987;DHT22;5033;46.310;11.214;2024-01-07T08:15:54;6.10;99.90
9987;DHT22;5033;46.310;11.214;2024-01-07T08:18:21;6.10;99.90
9987;DHT22;5033;46.310;11.214;2024-01-07T08:20:48;6.20;99.90
9987;DHT22;5033;46.310;11.214;2024-01-07T08:23:15;6.20;99.90
9987;DHT22;5033;46.310;11.214;2024-01-07T08:25:44;6.20;99.90
9987;DHT22;5033;46.310;11.214;2024-01-07T08:28:11;6.30;99.90
9987;DHT22;5033;46.310;11.214;2024-01-07T08:30:38;6.30;99.90
9987;DHT22;5033;46.310;11.214;2024-01-07T08:33:05;6.40;99.90
9987;DHT22;5033;46.310;11.214;2024-01-07T08:35:32;6.40;99.90
9987;DHT22;5033;46.310;11.214;2024-01-07T08:37:59;6.50;99.90
9987;DHT22;5033;46.310;11.214;2024-01-07T08:40:26;6.50;99.90
9987;DHT22;5033;46.310;11.214;2024-01-07T08:42:56;6.50;99.90
9987;DHT22;5033;46.310;11.214;2024-01-07T08:45:23;6.60;99.90
9987;DHT22;5033;46.310;11.214;2024-01-07T08:47:50;6.60;99.90
9987;DHT22;5033;46.310;11.214;2024-01-07T08:50:17;6.60;99.90
9987;DHT22;5033;46.310;11.214;2024-01-07T08:52:44;6.50;99.90
9987;DHT22;5033;46.310;11.214;2024-01-07T08:55:12;6.50;99.90
9987;DHT22;5033;46.310;11.214;2024-01-07T08:57:39;6.60;99.90
9987;DHT22;5033;46.310;11.214;2024-01-07T09:00:08;6.60;99.90
9987;DHT22;5033;46.310;11.214;2024-01-07T09:02:36;6.60;99.90
9987;DHT22;5033;46.310;11.214;2024-01-07T09:05:03;6.60;99.90
9987;DHT22;5033;46.310;11.214;2024-01-07T09:07:31;6.60;99.90
9987;DHT22;5033;46.310;11.214;2024-01-07T09:09:58;6.60;99.90
9987;DHT22;5033;46.310;11.214;2024-01-07T09:12:27;6.60;99.90
9987;DHT22;5033;46.310;11.214;2024-01-07T09:14:54;6.60;99.90
9987;DHT22;5033;46.310;11.214;2024-01-07T09:17:22;6.60;99.90
9987;DHT22;5033;46.310;11.214;2024-01-07T09:19:49;6.70;99.90
9987;DHT22;5033;46.310;11.214;2024-01-07T09:22:16;6.70;99.90
9987;DHT22;5033;46.310;11.214;2024-01-07T09:24:43;6.70;99.90
9987;DHT22;5033;46.310;11.214;2024-01-07T09:27:10;6.70;99.90
9987;DHT22;5033;46.310;11.214;2024-01-07T09:29:37;6.70;99.90
9987;DHT22;5033;46.310;11.214;2024-01-07T09:32:05;6.70;99.90
9987;DHT22;5033;46.310;11.214;2024-01-07T09:34:33;6.80;99.90
9987;DHT22;5033;46.310;11.214;2024-01-07T09:37:00;6.80;99.90
9987;DHT22;5033;46.310;11.214;2024-01-07T09:39:28;6.90;99.90
9987;DHT22;5033;46.310;11.214;2024-01-07T09:41:55;6.90;99.90
9987;DHT22;5033;46.310;11.214;2024-01-07T09:44:22;6.90;99.90
9987;DHT22;5033;46.310;11.214;2024-01-07T09:46:49;6.90;99.90
9987;DHT22;5033;46.310;11.214;2024-01-07T09:49:17;6.90;99.90
9987;DHT22;5033;46.310;11.214;2024-01-07T09:51:48;6.90;99.90
9987;DHT22;5033;46.310;11.214;2024-01-07T09:54:17;7.00;99.90
9987;DHT22;5033;46.310;11.214;2024-01-07T09:56:50;7.00;99.90
9987;DHT22;5033;46.310;11.214;2024-01-07T09:59:21;7.00;99.90
9987;DHT22;5033;46.310;11.214;2024-01-07T10:01:50;7.00;99.90
9987;DHT22;5033;46.310;11.214;2024-01-07T10:04:18;7.00;99.90
9987;DHT22;5033;46.310;11.214;2024-01-07T10:06:46;7.00;99.90
9987;DHT22;5033;46.310;11.214;2024-01-07T10:09:15;7.00;99.90
9987;DHT22;5033;46.310;11.214;2024-01-07T10:11:43;7.10;99.90
9987;DHT22;5033;46.310;11.214;2024-01-07T10:14:10;7.10;99.90
9987;DHT22;5033;46.310;11.214;2024-01-07T10:16:37;7.10;99.90
9987;DHT22;5033;46.310;11.214;2024-01-07T10:19:05;7.10;99.90
9987;DHT22;5033;46.310;11.214;2024-01-07T10:21:33;7.10;99.90
9987;DHT22;5033;46.310;11.214;2024-01-07T10:24:09;7.10;99.90
9987;DHT22;5033;46.310;11.214;2024-01-07T10:26:37;7.20;99.90
9987;DHT22;5033;46.310;11.214;2024-01-07T10:29:05;7.20;99.90
9987;DHT22;5033;46.310;11.214;2024-01-07T10:31:33;7.20;99.90
9987;DHT22;5033;46.310;11.214;2024-01-07T10:34:00;7.20;99.90
9987;DHT22;5033;46.310;11.214;2024-01-07T10:36:29;7.30;99.90
9987;DHT22;5033;46.310;11.214;2024-01-07T10:38:57;7.30;99.90
9987;DHT22;5033;46.310;11.214;2024-01-07T10:41:26;7.40;99.90
9987;DHT22;5033;46.310;11.214;2024-01-07T10:43:55;7.50;99.90
9987;DHT22;5033;46.310;11.214;2024-01-07T10:46:23;7.50;99.90
9987;DHT22;5033;46.310;11.214;2024-01-07T10:48:55;7.70;99.90
9987;DHT22;5033;46.310;11.214;2024-01-07T10:51:27;7.80;99.90
9987;DHT22;5033;46.310;11.214;2024-01-07T10:53:56;7.90;99.90
9987;DHT22;5033;46.310;11.214;2024-01-07T10:56:24;8.10;99.90
9987;DHT22;5033;46.310;11.214;2024-01-07T10:58:53;8.20;99.90
9987;DHT22;5033;46.310;11.214;2024-01-07T11:01:22;8.30;99.90
9987;DHT22;5033;46.310;11.214;2024-01-07T11:03:55;8.30;99.90
9987;DHT22;5033;46.310;11.214;2024-01-07T11:06:31;8.40;99.90
9987;DHT22;5033;46.310;11.214;2024-01-07T11:09:06;8.50;99.90
9987;DHT22;5033;46.310;11.214;2024-01-07T11:11:38;8.50;99.90
9987;DHT22;5033;46.310;11.214;2024-01-07T11:14:35;8.60;99.90
9987;DHT22;5033;46.310;11.214;2024-01-07T11:17:03;8.60;99.90
9987;DHT22;5033;46.310;11.214;2024-01-07T11:19:30;8.60;99.90
9987;DHT22;5033;46.310;11.214;2024-01-07T11:22:22;8.70;99.90
9987;DHT22;5033;46.310;11.214;2024-01-07T11:24:50;8.70;99.90
9987;DHT22;5033;46.310;11.214;2024-01-07T11:27:18;8.70;99.90
9987;DHT22;5033;46.310;11.214;2024-01-07T11:29:53;8.70;99.90
9987;DHT22;5033;46.310;11.214;2024-01-07T11:32:22;8.70;99.90
9987;DHT22;5033;46.310;11.214;2024-01-07T11:34:51;8.70;99.90
9987;DHT22;5033;46.310;11.214;2024-01-07T11:37:19;8.70;99.90
9987;DHT22;5033;46.310;11.214;2024-01-07T11:39:48;8.70;99.90
9987;DHT22;5033;46.310;11.214;2024-01-07T11:42:15;8.70;99.90
9987;DHT22;5033;46.310;11.214;2024-01-07T11:44:47;8.70;99.90
9987;DHT22;5033;46.310;11.214;2024-01-07T11:47:15;8.70;99.90
9987;DHT22;5033;46.310;11.214;2024-01-07T11:49:42;8.70;99.90
9987;DHT22;5033;46.310;11.214;2024-01-07T11:52:10;8.70;99.90
9987;DHT22;5033;46.310;11.214;2024-01-07T11:54:37;8.70;99.90
9987;DHT22;5033;46.310;11.214;2024-01-07T11:57:05;8.70;99.90
9987;DHT22;5033;46.310;11.214;2024-01-07T11:59:33;8.70;99.90
9987;DHT22;5033;46.310;11.214;2024-01-07T12:02:02;8.70;99.90
9987;DHT22;5033;46.310;11.214;2024-01-07T12:04:30;8.70;99.90
9987;DHT22;5033;46.310;11.214;2024-01-07T12:06:57;8.80;99.90
9987;DHT22;5033;46.310;11.214;2024-01-07T12:09:24;8.80;99.90
9987;DHT22;5033;46.310;11.214;2024-01-07T12:11:51;8.90;99.90
9987;DHT22;5033;46.310;11.214;2024-01-07T12:14:19;8.90;99.90
9987;DHT22;5033;46.310;11.214;2024-01-07T12:16:46;9.00;99.90
9987;DHT22;5033;46.310;11.214;2024-01-07T12:19:14;9.00;99.90
9987;DHT22;5033;46.310;11.214;2024-01-07T12:21:41;9.00;99.90
9987;DHT22;5033;46.310;11.214;2024-01-07T12:24:09;9.00;99.90
9987;DHT22;5033;46.310;11.214;2024-01-07T12:26:36;9.00;99.90
9987;DHT22;5033;46.310;11.214;2024-01-07T12:29:03;9.00;99.90
9987;DHT22;5033;46.310;11.214;2024-01-07T12:31:33;8.90;99.90
9987;DHT22;5033;46.310;11.214;2024-01-07T12:34:01;8.90;99.90
9987;DHT22;5033;46.310;11.214;2024-01-07T12:36:31;8.90;99.90
9987;DHT22;5033;46.310;11.214;2024-01-07T12:38:58;8.90;99.90
9987;DHT22;5033;46.310;11.214;2024-01-07T12:41:25;8.90;99.90
9987;DHT22;5033;46.310;11.214;2024-01-07T12:43:52;8.90;99.90
9987;DHT22;5033;46.310;11.214;2024-01-07T12:46:19;8.90;99.90
9987;DHT22;5033;46.310;11.214;2024-01-07T12:48:46;8.90;99.90
9987;DHT22;5033;46.310;11.214;2024-01-07T12:51:13;9.00;99.90
9987;DHT22;5033;46.310;11.214;2024-01-07T12:53:42;9.00;99.90
9987;DHT22;5033;46.310;11.214;2024-01-07T12:56:09;9.00;99.90
9987;DHT22;5033;46.310;11.214;2024-01-07T12:58:36;8.90;99.90
9987;DHT22;5033;46.310;11.214;2024-01-07T13:01:03;8.90;99.90
9987;DHT22;5033;46.310;11.214;2024-01-07T13:03:30;8.90;99.90
9987;DHT22;5033;46.310;11.214;2024-01-07T13:05:57;8.90;99.90
9987;DHT22;5033;46.310;11.214;2024-01-07T13:08:24;8.90;99.90
9987;DHT22;5033;46.310;11.214;2024-01-07T13:10:54;8.80;99.90
9987;DHT22;5033;46.310;11.214;2024-01-07T13:13:21;8.80;99.90
9987;DHT22;5033;46.310;11.214;2024-01-07T13:15:48;8.80;99.90
9987;DHT22;5033;46.310;11.214;2024-01-07T13:18:16;8.80;99.90
9987;DHT22;5033;46.310;11.214;2024-01-07T13:20:44;8.80;99.90
9987;DHT22;5033;46.310;11.214;2024-01-07T13:23:11;8.80;99.90
9987;DHT22;5033;46.310;11.214;2024-01-07T13:25:38;8.80;99.90
9987;DHT22;5033;46.310;11.214;2024-01-07T13:28:06;8.80;99.90
9987;DHT22;5033;46.310;11.214;2024-01-07T13:30:37;8.80;99.90
9987;DHT22;5033;46.310;11.214;2024-01-07T13:33:05;8.80;99.90
9987;DHT22;5033;46.310;11.214;2024-01-07T13:35:33;8.80;99.90
9987;DHT22;5033;46.310;11.214;2024-01-07T13:38:00;8.80;99.90
9987;DHT22;5033;46.310;11.214;2024-01-07T13:40:28;8.80;99.90
9987;DHT22;5033;46.310;11.214;2024-01-07T13:42:55;8.80;99.90
9987;DHT22;5033;46.310;11.214;2024-01-07T13:45:23;8.70;99.90
9987;DHT22;5033;46.310;11.214;2024-01-07T13:47:50;8.70;99.90
9987;DHT22;5033;46.310;11.214;2024-01-07T13:50:17;8.60;99.90
9987;DHT22;5033;46.310;11.214;2024-01-07T13:52:44;8.60;99.90
9987;DHT22;5033;46.310;11.214;2024-01-07T13:55:11;8.60;99.90
9987;DHT22;5033;46.310;11.214;2024-01-07T13:57:39;8.50;99.90
9987;DHT22;5033;46.310;11.214;2024-01-07T14:00:08;8.50;99.90
9987;DHT22;5033;46.310;11.214;2024-01-07T14:02:37;8.50;99.90
9987;DHT22;5033;46.310;11.214;2024-01-07T14:05:06;8.50;99.90
9987;DHT22;5033;46.310;11.214;2024-01-07T14:07:35;8.60;99.90
9987;DHT22;5033;46.310;11.214;2024-01-07T14:10:03;8.60;99.90
9987;DHT22;5033;46.310;11.214;2024-01-07T14:12:32;8.50;99.90
9987;DHT22;5033;46.310;11.214;2024-01-07T14:14:59;8.40;99.90
9987;DHT22;5033;46.310;11.214;2024-01-07T14:17:27;8.50;99.90
9987;DHT22;5033;46.310;11.214;2024-01-07T14:19:55;8.50;99.90
9987;DHT22;5033;46.310;11.214;2024-01-07T14:22:22;8.50;99.90
9987;DHT22;5033;46.310;11.214;2024-01-07T14:24:49;8.50;99.90
9987;DHT22;5033;46.310;11.214;2024-01-07T14:27:16;8.50;99.90
9987;DHT22;5033;46.310;11.214;2024-01-07T14:29:43;8.50;99.90
9987;DHT22;5033;46.310;11.214;2024-01-07T14:32:11;8.50;99.90
9987;DHT22;5033;46.310;11.214;2024-01-07T14:34:38;8.40;99.90
9987;DHT22;5033;46.310;11.214;2024-01-07T14:37:08;8.40;99.90
9987;DHT22;5033;46.310;11.214;2024-01-07T14:39:36;8.40;99.90
9987;DHT22;5033;46.310;11.214;2024-01-07T14:42:03;8.40;99.90
9987;DHT22;5033;46.310;11.214;2024-01-07T14:44:30;8.30;99.90
9987;DHT22;5033;46.310;11.214;2024-01-07T14:46:57;8.30;99.90
9987;DHT22;5033;46.310;11.214;2024-01-07T14:49:24;8.30;99.90
9987;DHT22;5033;46.310;11.214;2024-01-07T14:51:51;8.20;99.90
9987;DHT22;5033;46.310;11.214;2024-01-07T14:54:20;8.20;99.90
9987;DHT22;5033;46.310;11.214;2024-01-07T14:56:47;8.20;99.90
9987;DHT22;5033;46.310;11.214;2024-01-07T14:59:14;8.10;99.90
9987;DHT22;5033;46.310;11.214;2024-01-07T15:01:41;8.20;99.90
9987;DHT22;5033;46.310;11.214;2024-01-07T15:04:10;8.20;99.90
9987;DHT22;5033;46.310;11.214;2024-01-07T15:06:41;8.20;99.90
9987;DHT22;5033;46.310;11.214;2024-01-07T15:09:09;8.20;99.90
9987;DHT22;5033;46.310;11.214;2024-01-07T15:11:40;8.20;99.90
9987;DHT22;5033;46.310;11.214;2024-01-07T15:14:10;8.10;99.90
9987;DHT22;5033;46.310;11.214;2024-01-07T15:16:37;8.10;99.90
9987;DHT22;5033;46.310;11.214;2024-01-07T15:19:04;8.10;99.90
9987;DHT22;5033;46.310;11.214;2024-01-07T15:21:31;8.10;99.90
9987;DHT22;5033;46.310;11.214;2024-01-07T15:23:58;8.00;99.90
9987;DHT22;5033;46.310;11.214;2024-01-07T15:26:25;8.00;99.90
9987;DHT22;5033;46.310;11.214;2024-01-07T15:28:54;8.00;99.90
9987;DHT22;5033;46.310;11.214;2024-01-07T15:31:21;8.00;99.90
9987;DHT22;5033;46.310;11.214;2024-01-07T15:33:49;7.90;99.90
9987;DHT22;5033;46.310;11.214;2024-01-07T15:36:16;7.90;99.90
9987;DHT22;5033;46.310;11.214;2024-01-07T15:38:43;7.80;99.90
9987;DHT22;5033;46.310;11.214;2024-01-07T15:41:10;7.80;99.90
9987;DHT22;5033;46.310;11.214;2024-01-07T15:43:38;7.80;99.90
9987;DHT22;5033;46.310;11.214;2024-01-07T15:46:06;7.80;99.90
9987;DHT22;5033;46.310;11.214;2024-01-07T15:48:33;7.80;99.90
9987;DHT22;5033;46.310;11.214;2024-01-07T15:51:00;7.80;99.90
9987;DHT22;5033;46.310;11.214;2024-01-07T15:53:32;7.80;99.90
9987;DHT22;5033;46.310;11.214;2024-01-07T15:56:01;7.80;99.90
9987;DHT22;5033;46.310;11.214;2024-01-07T15:58:28;7.80;99.90
9987;DHT22;5033;46.310;11.214;2024-01-07T16:00:58;7.70;99.90
9987;DHT22;5033;46.310;11.214;2024-01-07T16:03:26;7.70;99.90
9987;DHT22;5033;46.310;11.214;2024-01-07T16:05:53;7.70;99.90